createdAt,value
2023-05-09T00:02:35.353Z,98763.47
2023-05-09T00:05:37.198Z,98766.16
2023-05-09T00:08:38.785Z,98764.56
2023-05-09T00:11:40.833Z,98758.13
2023-05-09T00:14:45.631Z,98772.38
2023-05-09T00:17:47.314Z,98760.94
2023-05-09T00:20:49.446Z,98763.41
2023-05-09T00:23:51.034Z,98757.88
2023-05-09T00:26:52.629Z,98755.28
2023-05-09T00:29:55.984Z,98759.22
2023-05-09T00:32:57.559Z,98760.56
2023-05-09T00:35:59.167Z,98747.88
2023-05-09T00:39:00.793Z,98742.38
2023-05-09T00:42:03.640Z,98748.59
2023-05-09T00:45:07.401Z,98743.31
2023-05-09T00:48:09.051Z,98735.44
2023-05-09T00:51:10.722Z,98733.63
2023-05-09T00:54:12.474Z,98732.13
2023-05-09T00:57:14.374Z,98730.31
2023-05-09T01:00:17.816Z,98726.59
2023-05-09T01:03:19.980Z,98727.53
2023-05-09T01:06:25.564Z,98725.03
2023-05-09T01:09:31.755Z,98717.97
2023-05-09T01:12:37.310Z,98718.25
2023-05-09T01:15:43.821Z,98706.84
2023-05-09T01:18:47.346Z,98710.59
2023-05-09T01:21:49.725Z,98704.72
2023-05-09T01:25:14.496Z,98704.56
2023-05-09T01:28:19.138Z,98697.56
2023-05-09T01:31:22.905Z,98689.56
2023-05-09T01:34:26.273Z,98696.13
2023-05-09T01:37:30.517Z,98692.88
2023-05-09T01:40:33.804Z,98687.63
2023-05-09T01:43:36.988Z,98683.38
2023-05-09T01:46:40.517Z,98684.41
2023-05-09T01:49:43.217Z,98684.53
2023-05-09T01:52:48.057Z,98685.16
2023-05-09T01:55:51.064Z,98683.56
2023-05-09T01:58:53.677Z,98682.78
2023-05-09T02:01:56.847Z,98684.72
2023-05-09T02:04:58.683Z,98685.81
2023-05-09T02:08:00.430Z,98689.09
2023-05-09T02:11:01.983Z,98682.09
2023-05-09T02:14:03.629Z,98675.06
2023-05-09T02:17:09.571Z,98668.84
2023-05-09T02:20:11.638Z,98670.59
2023-05-09T02:23:13.674Z,98673.13
2023-05-09T02:26:15.234Z,98671.34
2023-05-09T02:29:20.104Z,98662.13
2023-05-09T02:32:25.760Z,98664.44
2023-05-09T02:35:28.986Z,98659.38
2023-05-09T02:38:30.600Z,98666.50
2023-05-09T02:41:32.397Z,98667.19
2023-05-09T02:44:34.629Z,98663.59
2023-05-09T02:47:38.053Z,98663.66
2023-05-09T02:50:42.817Z,98651.97
2023-05-09T02:53:44.555Z,98651.88
2023-05-09T02:56:46.421Z,98648.34
2023-05-09T02:59:48.425Z,98644.38
2023-05-09T03:02:52.514Z,98644.47
2023-05-09T03:05:54.570Z,98639.38
2023-05-09T03:08:56.845Z,98635.00
2023-05-09T03:11:59.542Z,98629.91
2023-05-09T03:15:01.520Z,98632.94
2023-05-09T03:18:05.563Z,98627.03
2023-05-09T03:21:07.334Z,98621.97
2023-05-09T03:24:11.086Z,98616.88
2023-05-09T03:27:12.982Z,98621.97
2023-05-09T03:30:15.030Z,98620.88
2023-05-09T03:33:19.746Z,98615.34
2023-05-09T03:36:22.074Z,98607.25
2023-05-09T03:39:24.479Z,98610.72
2023-05-09T03:42:31.013Z,98608.97
2023-05-09T03:45:36.185Z,98606.38
2023-05-09T03:48:39.712Z,98607.09
2023-05-09T03:51:42.273Z,98600.91
2023-05-09T03:54:48.507Z,98601.47
2023-05-09T03:57:51.035Z,98593.31
2023-05-09T04:00:53.703Z,98597.63
2023-05-09T04:03:59.470Z,98595.81
2023-05-09T04:07:02.868Z,98596.69
2023-05-09T04:10:05.075Z,98592.28
2023-05-09T04:13:07.597Z,98588.53
2023-05-09T04:16:10.308Z,98591.34
2023-05-09T04:19:13.454Z,98586.91
2023-05-09T04:22:15.201Z,98587.50
2023-05-09T04:25:17.069Z,98587.34
2023-05-09T04:28:20.271Z,98588.78
2023-05-09T04:31:23.280Z,98588.63
2023-05-09T04:34:28.124Z,98584.03
2023-05-09T04:37:32.808Z,98581.88
2023-05-09T04:40:36.982Z,98583.47
2023-05-09T04:43:39.477Z,98582.03
2023-05-09T04:46:42.244Z,98585.06
2023-05-09T04:49:45.398Z,98580.81
2023-05-09T04:52:47.126Z,98583.59
2023-05-09T04:55:51.986Z,98579.13
2023-05-09T04:58:54.493Z,98575.63
2023-05-09T05:01:56.277Z,98575.72
2023-05-09T05:05:10.849Z,98567.75
2023-05-09T05:08:15.846Z,98573.09
2023-05-09T05:11:18.138Z,98555.75
2023-05-09T05:14:20.809Z,98554.69
2023-05-09T05:17:22.588Z,98555.31
2023-05-09T05:20:25.819Z,98557.13
2023-05-09T05:23:27.477Z,98550.91
2023-05-09T05:26:30.239Z,98547.78
2023-05-09T05:29:32.357Z,98546.31
2023-05-09T05:32:34.680Z,98536.34
2023-05-09T05:35:37.830Z,98533.34
2023-05-09T05:38:39.460Z,98535.72
2023-05-09T05:41:41.353Z,98536.44
2023-05-09T05:44:43.422Z,98534.78
2023-05-09T05:47:46.690Z,98533.56
2023-05-09T05:50:50.409Z,98536.38
2023-05-09T05:53:55.904Z,98537.75
2023-05-09T05:56:58.589Z,98540.94
2023-05-09T06:00:00.381Z,98539.56
2023-05-09T06:03:02.143Z,98531.16
2023-05-09T06:06:16.935Z,98533.63
2023-05-09T06:09:18.653Z,98520.44
2023-05-09T06:12:20.510Z,98529.56
2023-05-09T06:15:22.283Z,98530.72
2023-05-09T06:18:25.275Z,98527.63
2023-05-09T06:21:28.698Z,98526.78
2023-05-09T06:24:35.613Z,98510.78
2023-05-09T06:27:38.779Z,98503.97
2023-05-09T06:30:41.192Z,98501.97
2023-05-09T06:33:42.808Z,98499.00
2023-05-09T06:36:45.853Z,98495.94
2023-05-09T06:39:47.440Z,98488.34
2023-05-09T06:42:49.019Z,98486.25
2023-05-09T06:45:51.211Z,98486.97
2023-05-09T06:48:52.810Z,98487.22
2023-05-09T06:51:55.728Z,98479.94
2023-05-09T06:54:57.377Z,98481.31
2023-05-09T06:57:58.997Z,98478.81
2023-05-09T07:01:00.840Z,98481.84
2023-05-09T07:04:02.414Z,98475.97
2023-05-09T07:07:06.000Z,98466.13
2023-05-09T07:10:12.103Z,98464.56
2023-05-09T07:13:14.213Z,98460.19
2023-05-09T07:16:17.925Z,98452.78
2023-05-09T07:19:20.356Z,98448.91
2023-05-09T07:22:23.448Z,98451.31
2023-05-09T07:25:25.234Z,98453.88
2023-05-09T07:28:27.022Z,98448.09
2023-05-09T07:31:28.679Z,98444.19
2023-05-09T07:34:30.510Z,98436.25
2023-05-09T07:37:33.553Z,98423.13
2023-05-09T07:40:37.157Z,98421.38
2023-05-09T07:43:38.677Z,98420.28
2023-05-09T07:46:42.047Z,98423.06
2023-05-09T07:49:46.344Z,98416.94
2023-05-09T07:52:49.364Z,98417.34
2023-05-09T07:55:50.892Z,98414.25
2023-05-09T07:58:54.337Z,98402.69
2023-05-09T08:01:57.307Z,98400.28
2023-05-09T08:05:01.429Z,98396.16
2023-05-09T08:08:04.787Z,98404.31
2023-05-09T08:11:06.347Z,98390.84
2023-05-09T08:14:08.099Z,98397.19
2023-05-09T08:17:09.852Z,98385.94
2023-05-09T08:20:12.429Z,98390.38
2023-05-09T08:23:15.438Z,98384.22
2023-05-09T08:26:16.982Z,98374.09
2023-05-09T08:29:18.596Z,98374.34
2023-05-09T08:32:20.379Z,98370.44
2023-05-09T08:35:22.069Z,98367.75
2023-05-09T08:38:25.188Z,98368.97
2023-05-09T08:41:28.138Z,98367.25
2023-05-09T08:44:31.003Z,98362.38
2023-05-09T08:47:34.531Z,98360.69
2023-05-09T08:50:36.276Z,98363.69
2023-05-09T08:53:39.606Z,98361.00
2023-05-09T08:56:41.613Z,98354.41
2023-05-09T08:59:43.770Z,98352.56
2023-05-09T09:02:45.558Z,98350.84
2023-05-09T09:05:48.480Z,98346.75
2023-05-09T09:08:52.376Z,98344.19
2023-05-09T09:11:55.667Z,98340.50
2023-05-09T09:15:02.814Z,98343.94
2023-05-09T09:18:09.748Z,98344.66
2023-05-09T09:21:12.518Z,98333.88
2023-05-09T09:24:19.116Z,98322.16
2023-05-09T09:27:20.650Z,98313.53
2023-05-09T09:30:23.618Z,98318.47
2023-05-09T09:33:26.713Z,98306.28
2023-05-09T09:36:29.123Z,98307.97
2023-05-09T09:39:32.096Z,98299.22
2023-05-09T09:42:40.461Z,98296.75
2023-05-09T09:45:49.528Z,98299.38
2023-05-09T09:48:55.174Z,98298.38
2023-05-09T09:51:58.249Z,98291.25
2023-05-09T09:55:01.279Z,98281.13
2023-05-09T09:58:03.057Z,98268.97
2023-05-09T10:01:06.173Z,98270.16
2023-05-09T10:04:09.339Z,98266.72
2023-05-09T10:07:14.548Z,98261.31
2023-05-09T10:10:17.922Z,98260.53
2023-05-09T10:13:21.102Z,98262.88
2023-05-09T10:16:31.946Z,98255.53
2023-05-09T10:19:44.135Z,98250.72
2023-05-09T10:22:45.972Z,98246.03
2023-05-09T10:25:54.443Z,98244.81
2023-05-09T10:28:57.336Z,98230.66
2023-05-09T10:32:00.005Z,98231.19
2023-05-09T10:35:06.021Z,98217.25
2023-05-09T10:38:07.903Z,98223.50
2023-05-09T10:41:12.394Z,98213.97
2023-05-09T10:44:14.309Z,98209.81
2023-05-09T10:47:16.976Z,98210.16
2023-05-09T10:50:19.250Z,98213.31
2023-05-09T10:53:24.207Z,98201.56
2023-05-09T10:56:29.235Z,98202.25
2023-05-09T10:59:37.831Z,98189.28
2023-05-09T11:02:39.581Z,98187.00
2023-05-09T11:05:41.484Z,98185.31
2023-05-09T11:08:43.050Z,98181.09
2023-05-09T11:11:53.003Z,98180.22
2023-05-09T11:15:04.435Z,98182.63
2023-05-09T11:18:06.868Z,98169.41
2023-05-09T11:21:09.518Z,98167.78
2023-05-09T11:24:16.445Z,98166.56
2023-05-09T11:27:21.245Z,98155.78
2023-05-09T11:30:23.133Z,98157.44
2023-05-09T11:33:27.494Z,98147.47
2023-05-09T11:36:30.201Z,98156.16
2023-05-09T11:39:32.006Z,98146.16
2023-05-09T11:42:35.012Z,98144.19
2023-05-09T11:45:36.857Z,98138.28
2023-05-09T11:48:39.469Z,98133.72
2023-05-09T11:51:41.610Z,98134.06
2023-05-09T11:54:43.647Z,98132.13
2023-05-09T11:57:49.017Z,98127.69
2023-05-09T12:00:51.728Z,98135.28
2023-05-09T12:03:53.776Z,98138.00
2023-05-09T12:06:57.676Z,98138.00
2023-05-09T12:10:01.914Z,98124.41
2023-05-09T12:13:05.320Z,98134.06
2023-05-09T12:16:08.859Z,98119.41
2023-05-09T12:19:11.663Z,98115.38
2023-05-09T12:22:13.226Z,98114.09
2023-05-09T12:25:15.057Z,98112.03
2023-05-09T12:28:18.948Z,98092.25
2023-05-09T12:31:20.993Z,98104.78
2023-05-09T12:34:23.087Z,98100.94
2023-05-09T12:37:24.847Z,98089.81
2023-05-09T12:40:26.917Z,98082.16
2023-05-09T12:43:31.398Z,98082.31
2023-05-09T12:46:33.537Z,98084.31
2023-05-09T12:49:36.541Z,98073.94
2023-05-09T12:52:46.986Z,98067.53
2023-05-09T12:56:01.915Z,98062.13
2023-05-09T12:59:10.674Z,98057.69
2023-05-09T13:02:13.548Z,98056.84
2023-05-09T13:05:20.161Z,98045.88
2023-05-09T13:08:21.730Z,98054.19
2023-05-09T13:11:23.298Z,98047.03
2023-05-09T13:14:26.882Z,98040.91
2023-05-09T13:17:28.946Z,98036.50
2023-05-09T13:20:30.834Z,98034.09
2023-05-09T13:23:32.437Z,98028.38
2023-05-09T13:26:34.353Z,98025.41
2023-05-09T13:29:37.352Z,98019.38
2023-05-09T13:32:39.133Z,98016.00
2023-05-09T13:35:40.862Z,98019.13
2023-05-09T13:38:44.811Z,98010.72
2023-05-09T13:41:46.321Z,97998.75
2023-05-09T13:44:49.468Z,97986.38
2023-05-09T13:47:51.226Z,97993.97
2023-05-09T13:50:52.915Z,97977.91
2023-05-09T13:53:54.528Z,97979.03
2023-05-09T13:56:56.023Z,97974.25
2023-05-09T13:59:59.057Z,97974.03
2023-05-09T14:03:01.484Z,97968.75
2023-05-09T14:06:04.455Z,97963.50
2023-05-09T14:09:07.335Z,97961.72
2023-05-09T14:12:09.615Z,97959.16
2023-05-09T14:15:12.856Z,97950.13
2023-05-09T14:18:17.727Z,97948.56
2023-05-09T14:21:22.027Z,97939.66
2023-05-09T14:24:23.929Z,97942.56
2023-05-09T14:27:26.414Z,97937.47
2023-05-09T14:30:29.465Z,97927.59
2023-05-09T14:33:31.168Z,97927.69
2023-05-09T14:36:33.150Z,97924.34
2023-05-09T14:39:34.983Z,97911.09
2023-05-09T14:42:37.218Z,97915.28
2023-05-09T14:45:40.463Z,97918.97
2023-05-09T14:48:42.142Z,97913.94
2023-05-09T14:51:44.451Z,97911.13
2023-05-09T14:54:46.147Z,97904.75
2023-05-09T14:57:47.702Z,97900.47
2023-05-09T15:00:52.822Z,97896.63
2023-05-09T15:03:54.456Z,97891.38
2023-05-09T15:06:56.268Z,97885.59
2023-05-09T15:09:57.985Z,97882.78
2023-05-09T15:12:59.730Z,97884.78
2023-05-09T15:16:02.821Z,97879.66
2023-05-09T15:19:05.798Z,97866.38
2023-05-09T15:22:08.652Z,97870.03
2023-05-09T15:25:10.803Z,97868.75
2023-05-09T15:28:12.586Z,97873.00
2023-05-09T15:31:15.692Z,97863.69
2023-05-09T15:34:17.199Z,97864.25
2023-05-09T15:37:19.006Z,97865.53
2023-05-09T15:40:20.577Z,97856.44
2023-05-09T15:43:22.722Z,97850.06
2023-05-09T15:46:25.770Z,97851.34
2023-05-09T15:49:27.393Z,97840.97
2023-05-09T15:52:29.542Z,97845.94
2023-05-09T15:55:31.423Z,97841.84
2023-05-09T15:58:33.377Z,97833.28
2023-05-09T16:01:36.501Z,97837.00
2023-05-09T16:04:38.601Z,97829.88
2023-05-09T16:07:43.178Z,97824.06
2023-05-09T16:10:48.843Z,97827.94
2023-05-09T16:13:50.400Z,97819.94
2023-05-09T16:16:54.303Z,97808.84
2023-05-09T16:19:56.442Z,97805.44
2023-05-09T16:22:58.006Z,97801.31
2023-05-09T16:25:59.558Z,97792.94
2023-05-09T16:29:01.389Z,97798.63
2023-05-09T16:32:04.510Z,97793.06
2023-05-09T16:35:07.505Z,97794.66
2023-05-09T16:38:09.749Z,97790.63
2023-05-09T16:41:11.369Z,97789.50
2023-05-09T16:44:13.463Z,97780.69
2023-05-09T16:47:16.670Z,97777.81
2023-05-09T16:50:18.309Z,97769.56
2023-05-09T16:53:20.304Z,97767.31
2023-05-09T16:56:22.710Z,97760.50
2023-05-09T16:59:24.629Z,97754.81
2023-05-09T17:02:27.821Z,97748.69
2023-05-09T17:05:29.405Z,97752.41
2023-05-09T17:08:31.823Z,97747.13
2023-05-09T17:11:33.533Z,97745.28
2023-05-09T17:14:35.503Z,97744.56
2023-05-09T17:17:38.478Z,97740.41
2023-05-09T17:20:40.558Z,97733.47
2023-05-09T17:23:42.597Z,97740.88
2023-05-09T17:26:44.259Z,97729.47
2023-05-09T17:29:45.896Z,97729.75
2023-05-09T17:32:49.406Z,97731.75
2023-05-09T17:35:51.140Z,97734.88
2023-05-09T17:38:52.708Z,97731.22
2023-05-09T17:41:54.700Z,97724.50
2023-05-09T17:44:56.570Z,97722.97
2023-05-09T17:48:01.360Z,97729.50
2023-05-09T17:51:03.042Z,97723.81
2023-05-09T17:54:05.653Z,97723.25
2023-05-09T17:57:07.510Z,97716.41
2023-05-09T18:00:09.739Z,97717.84
2023-05-09T18:03:18.884Z,97720.09
2023-05-09T18:06:20.437Z,97716.84
2023-05-09T18:09:22.805Z,97715.28
2023-05-09T18:12:25.708Z,97704.78
2023-05-09T18:15:27.503Z,97708.03
2023-05-09T18:18:33.042Z,97708.31
2023-05-09T18:21:34.618Z,97702.31
2023-05-09T18:24:36.860Z,97703.88
2023-05-09T18:27:38.589Z,97701.41
2023-05-09T18:30:40.298Z,97700.84
2023-05-09T18:33:43.831Z,97702.28
2023-05-09T18:36:45.404Z,97701.69
2023-05-09T18:39:47.822Z,97697.56
2023-05-09T18:42:49.456Z,97702.66
2023-05-09T18:45:52.029Z,97702.38
2023-05-09T18:48:55.300Z,97698.06
2023-05-09T18:51:57.023Z,97713.69
2023-05-09T18:54:58.718Z,97703.91
2023-05-09T18:58:00.383Z,97703.72
2023-05-09T19:01:02.444Z,97699.59
2023-05-09T19:04:05.673Z,97706.22
2023-05-09T19:07:10.109Z,97704.25
2023-05-09T19:10:12.412Z,97708.72
2023-05-09T19:13:16.091Z,97698.47
2023-05-09T19:16:20.398Z,97704.28
2023-05-09T19:19:23.546Z,97703.09
2023-05-09T19:22:25.106Z,97707.19
2023-05-09T19:25:26.784Z,97706.84
2023-05-09T19:28:28.306Z,97705.66
2023-05-09T19:31:31.321Z,97706.19
2023-05-09T19:34:34.416Z,97708.31
2023-05-09T19:37:36.383Z,97708.56
2023-05-09T19:40:38.082Z,97711.91
2023-05-09T19:43:39.646Z,97712.78
2023-05-09T19:46:43.281Z,97710.94
2023-05-09T19:49:46.431Z,97711.03
2023-05-09T19:52:48.058Z,97705.06
2023-05-09T19:55:49.762Z,97708.03
2023-05-09T19:58:51.577Z,97701.94
2023-05-09T20:01:53.264Z,97697.78
2023-05-09T20:04:56.359Z,97699.75
2023-05-09T20:07:57.964Z,97702.00
2023-05-09T20:11:00.163Z,97693.28
2023-05-09T20:14:01.842Z,97687.91
2023-05-09T20:17:05.332Z,97684.78
2023-05-09T20:20:10.228Z,97682.44
2023-05-09T20:23:11.903Z,97678.91
2023-05-09T20:26:13.518Z,97680.16
2023-05-09T20:29:15.360Z,97687.66
2023-05-09T20:32:17.726Z,97688.25
2023-05-09T20:35:21.038Z,97689.94
2023-05-09T20:38:23.123Z,97699.84
2023-05-09T20:41:25.709Z,97690.06
2023-05-09T20:44:27.951Z,97691.66
2023-05-09T20:47:29.622Z,97684.69
2023-05-09T20:50:32.776Z,97685.16
2023-05-09T20:53:35.069Z,97673.94
2023-05-09T20:56:36.683Z,97664.34
2023-05-09T20:59:38.254Z,97668.59
2023-05-09T21:02:39.910Z,97659.25
2023-05-09T21:05:43.329Z,97664.91
2023-05-09T21:08:44.929Z,97666.25
2023-05-09T21:11:46.585Z,97661.97
2023-05-09T21:14:49.062Z,97661.50
2023-05-09T21:17:50.917Z,97655.78
2023-05-09T21:20:54.183Z,97655.69
2023-05-09T21:23:55.913Z,97649.13
2023-05-09T21:26:58.357Z,97647.66
2023-05-09T21:30:00.350Z,97651.19
2023-05-09T21:33:03.799Z,97641.66
2023-05-09T21:36:08.465Z,97632.66
2023-05-09T21:39:10.405Z,97635.25
2023-05-09T21:42:12.110Z,97635.25
2023-05-09T21:45:13.741Z,97630.72
2023-05-09T21:48:15.441Z,97627.69
2023-05-09T21:51:18.562Z,97618.03
2023-05-09T21:54:20.970Z,97622.09
2023-05-09T21:57:22.613Z,97619.75
2023-05-09T22:00:24.841Z,97623.44
2023-05-09T22:03:27.357Z,97619.56
2023-05-09T22:06:31.608Z,97614.91
2023-05-09T22:09:33.540Z,97622.97
2023-05-09T22:12:35.212Z,97618.56
2023-05-09T22:15:36.741Z,97625.16
2023-05-09T22:18:41.189Z,97623.72
2023-05-09T22:21:48.542Z,97621.88
2023-05-09T22:24:50.304Z,97618.47
2023-05-09T22:27:51.952Z,97622.00
2023-05-09T22:30:53.574Z,97619.81
2023-05-09T22:33:55.192Z,97609.44
2023-05-09T22:36:58.847Z,97607.75
2023-05-09T22:40:03.494Z,97611.53
2023-05-09T22:43:05.461Z,97599.69
2023-05-09T22:46:07.137Z,97608.09
2023-05-09T22:49:09.193Z,97605.53
2023-05-09T22:52:12.700Z,97616.06
2023-05-09T22:55:14.376Z,97609.94
2023-05-09T22:58:16.214Z,97615.69
2023-05-09T23:01:18.193Z,97605.19
2023-05-09T23:04:20.104Z,97600.81
2023-05-09T23:07:23.277Z,97608.47
2023-05-09T23:10:24.964Z,97606.78
2023-05-09T23:13:26.634Z,97600.41
2023-05-09T23:16:28.199Z,97607.63
2023-05-09T23:19:30.260Z,97597.00
2023-05-09T23:22:33.230Z,97600.81
2023-05-09T23:25:34.818Z,97585.53
2023-05-09T23:28:36.672Z,97585.63
2023-05-09T23:31:38.675Z,97578.81
2023-05-09T23:34:40.333Z,97580.91
2023-05-09T23:37:43.489Z,97577.97
2023-05-09T23:40:46.157Z,97567.81
2023-05-09T23:43:47.951Z,97566.50
2023-05-09T23:46:49.678Z,97564.06
2023-05-09T23:49:51.369Z,97555.03
2023-05-09T23:52:54.663Z,97555.03
2023-05-09T23:55:56.423Z,97561.38
2023-05-09T23:58:58.076Z,97555.03
